sensor_id;sensor_type;location;lat;lon;timestamp;temperature;humidity
43043;DHT22;28667;50.758;6.096;2024-01-11T00:02:15;-6.10;99.90
43043;DHT22;28667;50.758;6.096;2024-01-11T00:04:41;-6.10;99.90
43043;DHT22;28667;50.758;6.096;2024-01-11T00:07:09;-6.20;99.90
43043;DHT22;28667;50.758;6.096;2024-01-11T00:09:42;-6.20;99.90
43043;DHT22;28667;50.758;6.096;2024-01-11T00:12:08;-6.20;99.90
43043;DHT22;28667;50.758;6.096;2024-01-11T00:14:34;-6.20;99.90
43043;DHT22;28667;50.758;6.096;2024-01-11T00:17:00;-6.20;99.90
43043;DHT22;28667;50.758;6.096;2024-01-11T00:19:26;-6.20;99.90
43043;DHT22;28667;50.758;6.096;2024-01-11T00:21:52;-6.30;99.90
43043;DHT22;28667;50.758;6.096;2024-01-11T00:24:18;-6.30;99.90
43043;DHT22;28667;50.758;6.096;2024-01-11T00:26:44;-6.30;99.90
43043;DHT22;28667;50.758;6.096;2024-01-11T00:29:09;-6.30;99.90
43043;DHT22;28667;50.758;6.096;2024-01-11T00:31:35;-6.40;99.90
43043;DHT22;28667;50.758;6.096;2024-01-11T00:34:01;-6.40;99.90
43043;DHT22;28667;50.758;6.096;2024-01-11T00:36:27;-6.40;99.90
43043;DHT22;28667;50.758;6.096;2024-01-11T00:38:54;-6.40;99.90
43043;DHT22;28667;50.758;6.096;2024-01-11T00:41:19;-6.40;99.90
43043;DHT22;28667;50.758;6.096;2024-01-11T00:43:45;-6.40;99.90
43043;DHT22;28667;50.758;6.096;2024-01-11T00:46:11;-6.50;99.90
43043;DHT22;28667;50.758;6.096;2024-01-11T00:48:37;-6.50;99.90
43043;DHT22;28667;50.758;6.096;2024-01-11T00:51:06;-6.50;99.90
43043;DHT22;28667;50.758;6.096;2024-01-11T00:53:32;-6.50;99.90
43043;DHT22;28667;50.758;6.096;2024-01-11T00:55:59;-6.50;99.90
43043;DHT22;28667;50.758;6.096;2024-01-11T00:58:25;-6.50;99.90
43043;DHT22;28667;50.758;6.096;2024-01-11T01:00:51;-6.60;99.90
43043;DHT22;28667;50.758;6.096;2024-01-11T01:03:19;-6.60;99.90
43043;DHT22;28667;50.758;6.096;2024-01-11T01:05:45;-6.60;99.90
43043;DHT22;28667;50.758;6.096;2024-01-11T01:08:12;-6.60;99.90
43043;DHT22;28667;50.758;6.096;2024-01-11T01:10:37;-6.60;99.90
43043;DHT22;28667;50.758;6.096;2024-01-11T01:13:03;-6.60;99.90
43043;DHT22;28667;50.758;6.096;2024-01-11T01:15:29;-6.60;99.90
43043;DHT22;28667;50.758;6.096;2024-01-11T01:17:55;-6.60;99.90
43043;DHT22;28667;50.758;6.096;2024-01-11T01:20:21;-6.60;99.90
43043;DHT22;28667;50.758;6.096;2024-01-11T01:22:47;-6.60;99.90
43043;DHT22;28667;50.758;6.096;2024-01-11T01:25:13;-6.60;99.90
43043;DHT22;28667;50.758;6.096;2024-01-11T01:27:39;-6.60;99.90
43043;DHT22;28667;50.758;6.096;2024-01-11T01:30:05;-6.60;99.90
43043;DHT22;28667;50.758;6.096;2024-01-11T01:32:32;-6.60;99.90
43043;DHT22;28667;50.758;6.096;2024-01-11T01:34:58;-6.60;99.90
43043;DHT22;28667;50.758;6.096;2024-01-11T01:37:24;-6.70;99.90
43043;DHT22;28667;50.758;6.096;2024-01-11T01:39:50;-6.60;99.90
43043;DHT22;28667;50.758;6.096;2024-01-11T01:42:15;-6.70;99.90
43043;DHT22;28667;50.758;6.096;2024-01-11T01:44:41;-6.70;99.90
43043;DHT22;28667;50.758;6.096;2024-01-11T01:47:08;-6.70;99.90
43043;DHT22;28667;50.758;6.096;2024-01-11T01:49:35;-6.70;99.90
43043;DHT22;28667;50.758;6.096;2024-01-11T01:52:03;-6.70;99.90
43043;DHT22;28667;50.758;6.096;2024-01-11T01:54:29;-6.70;99.90
43043;DHT22;28667;50.758;6.096;2024-01-11T01:56:56;-6.70;99.90
43043;DHT22;28667;50.758;6.096;2024-01-11T01:59:24;-6.70;99.90
43043;DHT22;28667;50.758;6.096;2024-01-11T02:01:51;-6.70;99.90
43043;DHT22;28667;50.758;6.096;2024-01-11T02:04:17;-6.70;99.90
43043;DHT22;28667;50.758;6.096;2024-01-11T02:06:44;-6.70;99.90
43043;DHT22;28667;50.758;6.096;2024-01-11T02:09:13;-6.70;99.90
43043;DHT22;28667;50.758;6.096;2024-01-11T02:11:39;-6.70;99.90
43043;DHT22;28667;50.758;6.096;2024-01-11T02:14:07;-6.70;99.90
43043;DHT22;28667;50.758;6.096;2024-01-11T02:16:32;-6.70;99.90
43043;DHT22;28667;50.758;6.096;2024-01-11T02:18:58;-6.70;99.90
43043;DHT22;28667;50.758;6.096;2024-01-11T02:21:25;-6.70;99.90
43043;DHT22;28667;50.758;6.096;2024-01-11T02:26:27;-6.70;99.90
43043;DHT22;28667;50.758;6.096;2024-01-11T02:28:52;-6.70;99.90
43043;DHT22;28667;50.758;6.096;2024-01-11T02:31:18;-6.70;99.90
43043;DHT22;28667;50.758;6.096;2024-01-11T02:33:44;-6.70;99.90
43043;DHT22;28667;50.758;6.096;2024-01-11T02:36:10;-6.70;99.90
43043;DHT22;28667;50.758;6.096;2024-01-11T02:38:36;-6.70;99.90
43043;DHT22;28667;50.758;6.096;2024-01-11T02:41:03;-6.70;99.90
43043;DHT22;28667;50.758;6.096;2024-01-11T02:43:28;-6.70;99.90
43043;DHT22;28667;50.758;6.096;2024-01-11T02:45:55;-6.70;99.90
43043;DHT22;28667;50.758;6.096;2024-01-11T02:48:21;-6.70;99.90
43043;DHT22;28667;50.758;6.096;2024-01-11T02:50:48;-6.70;99.90
43043;DHT22;28667;50.758;6.096;2024-01-11T02:53:14;-6.70;99.90
43043;DHT22;28667;50.758;6.096;2024-01-11T02:55:40;-6.70;99.90
43043;DHT22;28667;50.758;6.096;2024-01-11T02:58:06;-6.70;99.90
43043;DHT22;28667;50.758;6.096;2024-01-11T03:00:31;-6.70;99.90
43043;DHT22;28667;50.758;6.096;2024-01-11T03:02:57;-6.70;99.90
43043;DHT22;28667;50.758;6.096;2024-01-11T03:05:23;-6.70;99.90
43043;DHT22;28667;50.758;6.096;2024-01-11T03:07:49;-6.70;99.90
43043;DHT22;28667;50.758;6.096;2024-01-11T03:10:14;-6.70;99.90
43043;DHT22;28667;50.758;6.096;2024-01-11T03:12:40;-6.70;99.90
43043;DHT22;28667;50.758;6.096;2024-01-11T03:15:06;-6.70;99.90
43043;DHT22;28667;50.758;6.096;2024-01-11T03:17:33;-6.70;99.90
43043;DHT22;28667;50.758;6.096;2024-01-11T03:19:59;-6.70;99.90
43043;DHT22;28667;50.758;6.096;2024-01-11T03:22:25;-6.70;99.90
43043;DHT22;28667;50.758;6.096;2024-01-11T03:24:51;-6.80;99.90
43043;DHT22;28667;50.758;6.096;2024-01-11T03:27:17;-6.80;99.90
43043;DHT22;28667;50.758;6.096;2024-01-11T03:29:43;-6.80;99.90
43043;DHT22;28667;50.758;6.096;2024-01-11T03:32:09;-6.80;99.90
43043;DHT22;28667;50.758;6.096;2024-01-11T03:34:38;-6.80;99.90
43043;DHT22;28667;50.758;6.096;2024-01-11T03:37:04;-6.70;99.90
43043;DHT22;28667;50.758;6.096;2024-01-11T03:39:29;-6.70;99.90
43043;DHT22;28667;50.758;6.096;2024-01-11T03:41:55;-6.70;99.90
43043;DHT22;28667;50.758;6.096;2024-01-11T03:44:21;-6.70;99.90
43043;DHT22;28667;50.758;6.096;2024-01-11T03:46:47;-6.70;99.90
43043;DHT22;28667;50.758;6.096;2024-01-11T03:49:13;-6.80;99.90
43043;DHT22;28667;50.758;6.096;2024-01-11T03:51:40;-6.80;99.90
43043;DHT22;28667;50.758;6.096;2024-01-11T03:54:05;-6.80;99.90
43043;DHT22;28667;50.758;6.096;2024-01-11T03:56:31;-6.80;99.90
43043;DHT22;28667;50.758;6.096;2024-01-11T03:58:57;-6.80;99.90
43043;DHT22;28667;50.758;6.096;2024-01-11T04:01:22;-6.80;99.90
43043;DHT22;28667;50.758;6.096;2024-01-11T04:03:48;-6.80;99.90
43043;DHT22;28667;50.758;6.096;2024-01-11T04:06:24;-6.90;99.90
43043;DHT22;28667;50.758;6.096;2024-01-11T04:08:50;-6.80;99.90
43043;DHT22;28667;50.758;6.096;2024-01-11T04:11:16;-6.90;99.90
43043;DHT22;28667;50.758;6.096;2024-01-11T04:13:42;-6.90;99.90
43043;DHT22;28667;50.758;6.096;2024-01-11T04:16:09;-6.80;99.90
43043;DHT22;28667;50.758;6.096;2024-01-11T04:18:35;-6.90;99.90
43043;DHT22;28667;50.758;6.096;2024-01-11T04:21:00;-6.90;99.90
43043;DHT22;28667;50.758;6.096;2024-01-11T04:23:26;-6.80;99.90
43043;DHT22;28667;50.758;6.096;2024-01-11T04:25:52;-6.90;99.90
43043;DHT22;28667;50.758;6.096;2024-01-11T04:28:18;-6.90;99.90
43043;DHT22;28667;50.758;6.096;2024-01-11T04:30:44;-6.80;99.90
43043;DHT22;28667;50.758;6.096;2024-01-11T04:33:10;-6.90;99.90
43043;DHT22;28667;50.758;6.096;2024-01-11T04:35:36;-6.90;99.90
43043;DHT22;28667;50.758;6.096;2024-01-11T04:38:02;-6.90;99.90
43043;DHT22;28667;50.758;6.096;2024-01-11T04:40:28;-6.90;99.90
43043;DHT22;28667;50.758;6.096;2024-01-11T04:42:54;-6.90;99.90
43043;DHT22;28667;50.758;6.096;2024-01-11T04:45:20;-6.90;99.90
43043;DHT22;28667;50.758;6.096;2024-01-11T04:47:45;-6.90;99.90
43043;DHT22;28667;50.758;6.096;2024-01-11T04:50:11;-6.90;99.90
43043;DHT22;28667;50.758;6.096;2024-01-11T04:52:37;-6.90;99.90
43043;DHT22;28667;50.758;6.096;2024-01-11T04:55:03;-6.90;99.90
43043;DHT22;28667;50.758;6.096;2024-01-11T04:57:29;-6.90;99.90
43043;DHT22;28667;50.758;6.096;2024-01-11T04:59:54;-6.90;99.90
43043;DHT22;28667;50.758;6.096;2024-01-11T05:02:23;-6.90;99.90
43043;DHT22;28667;50.758;6.096;2024-01-11T05:04:49;-6.90;99.90
43043;DHT22;28667;50.758;6.096;2024-01-11T05:07:15;-7.00;99.90
43043;DHT22;28667;50.758;6.096;2024-01-11T05:09:40;-6.90;99.90
43043;DHT22;28667;50.758;6.096;2024-01-11T05:12:06;-7.00;99.90
43043;DHT22;28667;50.758;6.096;2024-01-11T05:14:32;-7.00;99.90
43043;DHT22;28667;50.758;6.096;2024-01-11T05:16:58;-7.00;99.90
43043;DHT22;28667;50.758;6.096;2024-01-11T05:19:23;-7.00;99.90
43043;DHT22;28667;50.758;6.096;2024-01-11T05:21:49;-7.00;99.90
43043;DHT22;28667;50.758;6.096;2024-01-11T05:24:15;-7.00;99.90
43043;DHT22;28667;50.758;6.096;2024-01-11T05:26:41;-6.90;99.90
43043;DHT22;28667;50.758;6.096;2024-01-11T05:29:06;-7.00;99.90
43043;DHT22;28667;50.758;6.096;2024-01-11T05:31:32;-7.00;99.90
43043;DHT22;28667;50.758;6.096;2024-01-11T05:33:58;-7.00;99.90
43043;DHT22;28667;50.758;6.096;2024-01-11T05:36:23;-7.00;99.90
43043;DHT22;28667;50.758;6.096;2024-01-11T05:38:49;-6.90;99.90
43043;DHT22;28667;50.758;6.096;2024-01-11T05:41:15;-6.90;99.90
43043;DHT22;28667;50.758;6.096;2024-01-11T05:43:41;-6.90;99.90
43043;DHT22;28667;50.758;6.096;2024-01-11T05:46:08;-6.90;99.90
43043;DHT22;28667;50.758;6.096;2024-01-11T05:48:33;-6.90;99.90
43043;DHT22;28667;50.758;6.096;2024-01-11T05:50:59;-6.90;99.90
43043;DHT22;28667;50.758;6.096;2024-01-11T05:53:25;-6.90;99.90
43043;DHT22;28667;50.758;6.096;2024-01-11T05:55:53;-6.90;99.90
43043;DHT22;28667;50.758;6.096;2024-01-11T05:58:19;-6.80;99.90
43043;DHT22;28667;50.758;6.096;2024-01-11T06:00:45;-6.80;99.90
43043;DHT22;28667;50.758;6.096;2024-01-11T06:03:12;-6.80;99.90
43043;DHT22;28667;50.758;6.096;2024-01-11T06:05:38;-6.80;99.90
43043;DHT22;28667;50.758;6.096;2024-01-11T06:08:04;-6.80;99.90
43043;DHT22;28667;50.758;6.096;2024-01-11T06:10:30;-6.90;99.90
43043;DHT22;28667;50.758;6.096;2024-01-11T06:12:56;-6.90;99.90
43043;DHT22;28667;50.758;6.096;2024-01-11T06:15:22;-6.90;99.90
43043;DHT22;28667;50.758;6.096;2024-01-11T06:17:48;-6.90;99.90
43043;DHT22;28667;50.758;6.096;2024-01-11T06:20:14;-6.90;99.90
43043;DHT22;28667;50.758;6.096;2024-01-11T06:22:39;-6.90;99.90
43043;DHT22;28667;50.758;6.096;2024-01-11T06:25:05;-6.90;99.90
43043;DHT22;28667;50.758;6.096;2024-01-11T06:27:31;-6.90;99.90
43043;DHT22;28667;50.758;6.096;2024-01-11T06:29:57;-7.00;99.90
43043;DHT22;28667;50.758;6.096;2024-01-11T06:32:24;-7.00;99.90
43043;DHT22;28667;50.758;6.096;2024-01-11T06:34:49;-7.00;99.90
43043;DHT22;28667;50.758;6.096;2024-01-11T06:37:15;-7.00;99.90
43043;DHT22;28667;50.758;6.096;2024-01-11T06:39:41;-7.00;99.90
43043;DHT22;28667;50.758;6.096;2024-01-11T06:42:07;-7.00;99.90
43043;DHT22;28667;50.758;6.096;2024-01-11T06:44:33;-7.00;99.90
43043;DHT22;28667;50.758;6.096;2024-01-11T06:46:58;-7.00;99.90
43043;DHT22;28667;50.758;6.096;2024-01-11T06:49:25;-7.00;99.90
43043;DHT22;28667;50.758;6.096;2024-01-11T06:51:50;-7.00;99.90
43043;DHT22;28667;50.758;6.096;2024-01-11T06:54:17;-7.00;99.90
43043;DHT22;28667;50.758;6.096;2024-01-11T06:56:42;-7.10;99.90
43043;DHT22;28667;50.758;6.096;2024-01-11T06:59:08;-7.10;99.90
43043;DHT22;28667;50.758;6.096;2024-01-11T07:01:34;-7.10;99.90
43043;DHT22;28667;50.758;6.096;2024-01-11T07:04:00;-7.10;99.90
43043;DHT22;28667;50.758;6.096;2024-01-11T07:06:25;-7.10;99.90
43043;DHT22;28667;50.758;6.096;2024-01-11T07:08:51;-7.10;99.90
43043;DHT22;28667;50.758;6.096;2024-01-11T07:11:17;-7.10;99.90
43043;DHT22;28667;50.758;6.096;2024-01-11T07:13:43;-7.10;99.90
43043;DHT22;28667;50.758;6.096;2024-01-11T07:16:09;-7.20;99.90
43043;DHT22;28667;50.758;6.096;2024-01-11T07:18:34;-7.20;99.90
43043;DHT22;28667;50.758;6.096;2024-01-11T07:21:02;-7.20;99.90
43043;DHT22;28667;50.758;6.096;2024-01-11T07:23:29;-7.20;99.90
43043;DHT22;28667;50.758;6.096;2024-01-11T07:25:54;-7.20;99.90
43043;DHT22;28667;50.758;6.096;2024-01-11T07:28:20;-7.20;99.90
43043;DHT22;28667;50.758;6.096;2024-01-11T07:30:54;-7.30;99.90
43043;DHT22;28667;50.758;6.096;2024-01-11T07:33:20;-7.30;99.90
43043;DHT22;28667;50.758;6.096;2024-01-11T07:35:47;-7.30;99.90
43043;DHT22;28667;50.758;6.096;2024-01-11T07:38:13;-7.30;99.90
43043;DHT22;28667;50.758;6.096;2024-01-11T07:40:39;-7.20;99.90
43043;DHT22;28667;50.758;6.096;2024-01-11T07:43:05;-7.20;99.90
43043;DHT22;28667;50.758;6.096;2024-01-11T07:45:30;-7.20;99.90
43043;DHT22;28667;50.758;6.096;2024-01-11T07:47:56;-7.10;99.90
43043;DHT22;28667;50.758;6.096;2024-01-11T07:50:22;-7.10;99.90
43043;DHT22;28667;50.758;6.096;2024-01-11T07:52:48;-7.10;99.90
43043;DHT22;28667;50.758;6.096;2024-01-11T07:55:13;-7.10;99.90
43043;DHT22;28667;50.758;6.096;2024-01-11T07:57:40;-7.10;99.90
43043;DHT22;28667;50.758;6.096;2024-01-11T08:00:06;-7.10;99.90
43043;DHT22;28667;50.758;6.096;2024-01-11T08:02:38;-7.10;99.90
43043;DHT22;28667;50.758;6.096;2024-01-11T08:05:04;-7.10;99.90
43043;DHT22;28667;50.758;6.096;2024-01-11T08:07:30;-7.10;99.90
43043;DHT22;28667;50.758;6.096;2024-01-11T08:12:27;-7.10;99.90
43043;DHT22;28667;50.758;6.096;2024-01-11T08:14:54;-7.10;99.90
43043;DHT22;28667;50.758;6.096;2024-01-11T08:17:19;-7.10;99.90
43043;DHT22;28667;50.758;6.096;2024-01-11T08:19:45;-7.10;99.90
43043;DHT22;28667;50.758;6.096;2024-01-11T08:22:11;-7.10;99.90
43043;DHT22;28667;50.758;6.096;2024-01-11T08:24:37;-7.10;99.90
43043;DHT22;28667;50.758;6.096;2024-01-11T08:27:04;-7.10;99.90
43043;DHT22;28667;50.758;6.096;2024-01-11T08:29:31;-7.10;99.90
43043;DHT22;28667;50.758;6.096;2024-01-11T08:31:57;-7.10;99.90
43043;DHT22;28667;50.758;6.096;2024-01-11T08:34:22;-7.10;99.90
43043;DHT22;28667;50.758;6.096;2024-01-11T08:36:49;-7.10;99.90
43043;DHT22;28667;50.758;6.096;2024-01-11T08:39:14;-7.10;99.90
43043;DHT22;28667;50.758;6.096;2024-01-11T08:41:40;-7.10;99.90
43043;DHT22;28667;50.758;6.096;2024-01-11T08:44:06;-7.00;99.90
43043;DHT22;28667;50.758;6.096;2024-01-11T08:46:32;-7.00;99.90
43043;DHT22;28667;50.758;6.096;2024-01-11T08:49:02;-7.00;99.90
43043;DHT22;28667;50.758;6.096;2024-01-11T08:51:30;-7.00;99.90
43043;DHT22;28667;50.758;6.096;2024-01-11T08:53:56;-6.90;99.90
43043;DHT22;28667;50.758;6.096;2024-01-11T08:56:22;-6.90;99.90
43043;DHT22;28667;50.758;6.096;2024-01-11T08:58:48;-6.90;99.90
43043;DHT22;28667;50.758;6.096;2024-01-11T09:01:14;-6.90;99.90
43043;DHT22;28667;50.758;6.096;2024-01-11T09:03:40;-6.80;99.90
43043;DHT22;28667;50.758;6.096;2024-01-11T09:06:06;-6.80;99.90
43043;DHT22;28667;50.758;6.096;2024-01-11T09:08:32;-6.70;99.90
43043;DHT22;28667;50.758;6.096;2024-01-11T09:10:59;-6.70;99.90
43043;DHT22;28667;50.758;6.096;2024-01-11T09:13:25;-6.70;99.90
43043;DHT22;28667;50.758;6.096;2024-01-11T09:15:54;-6.60;99.90
43043;DHT22;28667;50.758;6.096;2024-01-11T09:18:21;-6.60;99.90
43043;DHT22;28667;50.758;6.096;2024-01-11T09:20:47;-6.50;99.90
43043;DHT22;28667;50.758;6.096;2024-01-11T09:23:13;-6.50;99.90
43043;DHT22;28667;50.758;6.096;2024-01-11T09:25:39;-6.40;99.90
43043;DHT22;28667;50.758;6.096;2024-01-11T09:28:05;-6.40;99.90
43043;DHT22;28667;50.758;6.096;2024-01-11T09:30:31;-6.40;99.90
43043;DHT22;28667;50.758;6.096;2024-01-11T09:32:57;-6.30;99.90
43043;DHT22;28667;50.758;6.096;2024-01-11T09:35:23;-6.30;99.90
43043;DHT22;28667;50.758;6.096;2024-01-11T09:37:49;-6.20;99.90
43043;DHT22;28667;50.758;6.096;2024-01-11T09:40:16;-6.20;99.90
43043;DHT22;28667;50.758;6.096;2024-01-11T09:42:42;-6.10;99.90
43043;DHT22;28667;50.758;6.096;2024-01-11T09:45:18;-6.00;99.90
43043;DHT22;28667;50.758;6.096;2024-01-11T09:47:44;-5.90;99.90
43043;DHT22;28667;50.758;6.096;2024-01-11T09:50:15;-5.80;99.90
43043;DHT22;28667;50.758;6.096;2024-01-11T09:52:47;-5.70;99.90
43043;DHT22;28667;50.758;6.096;2024-01-11T09:55:14;-5.60;99.90
43043;DHT22;28667;50.758;6.096;2024-01-11T09:57:45;-5.60;99.90
43043;DHT22;28667;50.758;6.096;2024-01-11T10:00:23;-5.50;99.90
43043;DHT22;28667;50.758;6.096;2024-01-11T10:02:49;-5.40;99.90
43043;DHT22;28667;50.758;6.096;2024-01-11T10:05:18;-5.30;99.90
43043;DHT22;28667;50.758;6.096;2024-01-11T10:07:44;-5.20;99.90
43043;DHT22;28667;50.758;6.096;2024-01-11T10:10:12;-5.10;99.90
43043;DHT22;28667;50.758;6.096;2024-01-11T10:12:41;-5.10;99.90
43043;DHT22;28667;50.758;6.096;2024-01-11T10:15:07;-5.00;99.90
43043;DHT22;28667;50.758;6.096;2024-01-11T10:17:44;-5.00;99.90
43043;DHT22;28667;50.758;6.096;2024-01-11T10:20:14;-4.90;99.90
43043;DHT22;28667;50.758;6.096;2024-01-11T10:22:41;-4.90;99.90
43043;DHT22;28667;50.758;6.096;2024-01-11T10:25:11;-4.90;99.90
43043;DHT22;28667;50.758;6.096;2024-01-11T10:27:39;-4.90;99.90
43043;DHT22;28667;50.758;6.096;2024-01-11T10:30:06;-4.80;99.90
43043;DHT22;28667;50.758;6.096;2024-01-11T10:32:33;-4.80;99.90
43043;DHT22;28667;50.758;6.096;2024-01-11T10:35:01;-4.80;99.90
43043;DHT22;28667;50.758;6.096;2024-01-11T10:37:31;-4.70;99.90
43043;DHT22;28667;50.758;6.096;2024-01-11T10:40:06;-4.70;99.90
43043;DHT22;28667;50.758;6.096;2024-01-11T10:42:36;-4.70;99.90
43043;DHT22;28667;50.758;6.096;2024-01-11T10:45:10;-4.60;99.90
43043;DHT22;28667;50.758;6.096;2024-01-11T10:47:37;-4.60;99.90
43043;DHT22;28667;50.758;6.096;2024-01-11T10:50:06;-4.60;99.90
43043;DHT22;28667;50.758;6.096;2024-01-11T10:52:43;-4.50;99.90
43043;DHT22;28667;50.758;6.096;2024-01-11T10:55:14;-4.40;99.90
43043;DHT22;28667;50.758;6.096;2024-01-11T10:57:41;-4.40;99.90
43043;DHT22;28667;50.758;6.096;2024-01-11T11:00:07;-4.30;99.90
43043;DHT22;28667;50.758;6.096;2024-01-11T11:02:37;-4.30;99.90
43043;DHT22;28667;50.758;6.096;2024-01-11T11:05:05;-4.20;99.90
43043;DHT22;28667;50.758;6.096;2024-01-11T11:07:34;-4.20;99.90
43043;DHT22;28667;50.758;6.096;2024-01-11T11:10:01;-4.10;99.90
43043;DHT22;28667;50.758;6.096;2024-01-11T11:12:31;-4.10;99.90
43043;DHT22;28667;50.758;6.096;2024-01-11T11:14:58;-4.00;99.90
43043;DHT22;28667;50.758;6.096;2024-01-11T11:17:25;-3.90;99.90
43043;DHT22;28667;50.758;6.096;2024-01-11T11:19:53;-3.90;99.90
43043;DHT22;28667;50.758;6.096;2024-01-11T11:22:19;-3.80;99.90
43043;DHT22;28667;50.758;6.096;2024-01-11T11:24:46;-3.80;99.90
43043;DHT22;28667;50.758;6.096;2024-01-11T11:27:16;-3.70;99.90
43043;DHT22;28667;50.758;6.096;2024-01-11T11:29:46;-3.70;99.90
43043;DHT22;28667;50.758;6.096;2024-01-11T11:32:14;-3.60;99.90
43043;DHT22;28667;50.758;6.096;2024-01-11T11:34:43;-3.60;99.90
43043;DHT22;28667;50.758;6.096;2024-01-11T11:37:10;-3.50;99.90
43043;DHT22;28667;50.758;6.096;2024-01-11T11:39:36;-3.50;99.90
43043;DHT22;28667;50.758;6.096;2024-01-11T11:42:02;-3.40;99.90
43043;DHT22;28667;50.758;6.096;2024-01-11T11:44:30;-3.40;99.90
43043;DHT22;28667;50.758;6.096;2024-01-11T11:47:17;-3.30;99.90
43043;DHT22;28667;50.758;6.096;2024-01-11T11:52:37;-3.20;99.90
43043;DHT22;28667;50.758;6.096;2024-01-11T11:55:05;-3.10;99.90
43043;DHT22;28667;50.758;6.096;2024-01-11T11:57:32;-3.00;99.90
43043;DHT22;28667;50.758;6.096;2024-01-11T11:59:59;-2.90;99.90
43043;DHT22;28667;50.758;6.096;2024-01-11T12:02:26;-2.80;99.90
43043;DHT22;28667;50.758;6.096;2024-01-11T12:04:52;-2.60;99.90
43043;DHT22;28667;50.758;6.096;2024-01-11T12:07:20;-2.50;99.90
43043;DHT22;28667;50.758;6.096;2024-01-11T12:09:46;-2.30;99.90
43043;DHT22;28667;50.758;6.096;2024-01-11T12:12:13;-2.20;99.90
43043;DHT22;28667;50.758;6.096;2024-01-11T12:14:39;-2.00;99.90
43043;DHT22;28667;50.758;6.096;2024-01-11T12:17:06;-1.80;99.90
43043;DHT22;28667;50.758;6.096;2024-01-11T12:19:32;-1.70;99.90
43043;DHT22;28667;50.758;6.096;2024-01-11T12:21:58;-1.60;99.90
43043;DHT22;28667;50.758;6.096;2024-01-11T12:24:24;-1.50;99.90
43043;DHT22;28667;50.758;6.096;2024-01-11T12:26:50;-1.40;99.90
43043;DHT22;28667;50.758;6.096;2024-01-11T12:29:19;-1.40;99.90
43043;DHT22;28667;50.758;6.096;2024-01-11T12:31:45;-1.30;99.90
43043;DHT22;28667;50.758;6.096;2024-01-11T12:34:14;-1.20;99.90
43043;DHT22;28667;50.758;6.096;2024-01-11T12:36:41;-1.10;99.90
43043;DHT22;28667;50.758;6.096;2024-01-11T12:39:08;-1.20;99.90
43043;DHT22;28667;50.758;6.096;2024-01-11T12:41:35;-1.20;99.90
43043;DHT22;28667;50.758;6.096;2024-01-11T12:44:01;-1.20;99.90
43043;DHT22;28667;50.758;6.096;2024-01-11T12:46:28;-1.20;99.90
43043;DHT22;28667;50.758;6.096;2024-01-11T12:48:53;-1.20;99.90
43043;DHT22;28667;50.758;6.096;2024-01-11T12:51:20;-1.20;99.90
43043;DHT22;28667;50.758;6.096;2024-01-11T12:53:47;-1.20;99.90
43043;DHT22;28667;50.758;6.096;2024-01-11T12:56:15;-1.30;99.90
43043;DHT22;28667;50.758;6.096;2024-01-11T12:58:42;-1.30;99.90
43043;DHT22;28667;50.758;6.096;2024-01-11T13:01:08;-1.40;99.90
43043;DHT22;28667;50.758;6.096;2024-01-11T13:03:35;-1.40;99.90
43043;DHT22;28667;50.758;6.096;2024-01-11T13:06:04;-1.40;99.90
43043;DHT22;28667;50.758;6.096;2024-01-11T13:08:34;-1.50;99.90
43043;DHT22;28667;50.758;6.096;2024-01-11T13:11:05;-1.50;99.90
43043;DHT22;28667;50.758;6.096;2024-01-11T13:13:33;-1.50;99.90
43043;DHT22;28667;50.758;6.096;2024-01-11T13:16:00;-1.50;99.90
43043;DHT22;28667;50.758;6.096;2024-01-11T13:18:25;-1.50;99.90
43043;DHT22;28667;50.758;6.096;2024-01-11T13:20:51;-1.60;99.90
43043;DHT22;28667;50.758;6.096;2024-01-11T13:23:18;-1.60;99.90
43043;DHT22;28667;50.758;6.096;2024-01-11T13:25:48;-1.60;99.90
43043;DHT22;28667;50.758;6.096;2024-01-11T13:28:17;-1.60;99.90
43043;DHT22;28667;50.758;6.096;2024-01-11T13:30:45;-1.60;99.90
43043;DHT22;28667;50.758;6.096;2024-01-11T13:33:11;-1.60;99.90
43043;DHT22;28667;50.758;6.096;2024-01-11T13:35:38;-1.60;99.90
43043;DHT22;28667;50.758;6.096;2024-01-11T13:38:05;-1.70;99.90
43043;DHT22;28667;50.758;6.096;2024-01-11T13:40:31;-1.70;99.90
43043;DHT22;28667;50.758;6.096;2024-01-11T13:42:57;-1.70;99.90
43043;DHT22;28667;50.758;6.096;2024-01-11T13:45:24;-1.70;99.90
43043;DHT22;28667;50.758;6.096;2024-01-11T13:47:51;-1.70;99.90
43043;DHT22;28667;50.758;6.096;2024-01-11T13:50:17;-1.80;99.90
43043;DHT22;28667;50.758;6.096;2024-01-11T13:52:44;-1.80;99.90
43043;DHT22;28667;50.758;6.096;2024-01-11T13:55:11;-1.80;99.90
43043;DHT22;28667;50.758;6.096;2024-01-11T13:57:37;-1.80;99.90
43043;DHT22;28667;50.758;6.096;2024-01-11T14:00:04;-1.80;99.90
43043;DHT22;28667;50.758;6.096;2024-01-11T14:02:31;-1.80;99.90
43043;DHT22;28667;50.758;6.096;2024-01-11T14:04:57;-1.80;99.90
43043;DHT22;28667;50.758;6.096;2024-01-11T14:07:23;-1.80;99.90
43043;DHT22;28667;50.758;6.096;2024-01-11T14:09:50;-1.80;99.90
43043;DHT22;28667;50.758;6.096;2024-01-11T14:12:16;-1.80;99.90
43043;DHT22;28667;50.758;6.096;2024-01-11T14:14:42;-1.80;99.90
43043;DHT22;28667;50.758;6.096;2024-01-11T14:17:11;-1.80;99.90
43043;DHT22;28667;50.758;6.096;2024-01-11T14:19:36;-1.80;99.90
43043;DHT22;28667;50.758;6.096;2024-01-11T14:22:02;-1.80;99.90
43043;DHT22;28667;50.758;6.096;2024-01-11T14:24:28;-1.70;99.90
43043;DHT22;28667;50.758;6.096;2024-01-11T14:26:54;-1.70;99.90
43043;DHT22;28667;50.758;6.096;2024-01-11T14:29:20;-1.70;99.90
43043;DHT22;28667;50.758;6.096;2024-01-11T14:31:46;-1.70;99.90
43043;DHT22;28667;50.758;6.096;2024-01-11T14:34:12;-1.70;99.90
43043;DHT22;28667;50.758;6.096;2024-01-11T14:36:38;-1.60;99.90
43043;DHT22;28667;50.758;6.096;2024-01-11T14:39:04;-1.60;99.90
43043;DHT22;28667;50.758;6.096;2024-01-11T14:41:30;-1.60;99.90
43043;DHT22;28667;50.758;6.096;2024-01-11T14:43:57;-1.70;99.90
43043;DHT22;28667;50.758;6.096;2024-01-11T14:46:23;-1.70;99.90
43043;DHT22;28667;50.758;6.096;2024-01-11T14:48:49;-1.70;99.90
43043;DHT22;28667;50.758;6.096;2024-01-11T14:51:15;-1.70;99.90
43043;DHT22;28667;50.758;6.096;2024-01-11T14:53:41;-1.70;99.90
43043;DHT22;28667;50.758;6.096;2024-01-11T14:56:07;-1.70;99.90
43043;DHT22;28667;50.758;6.096;2024-01-11T14:58:33;-1.70;99.90
43043;DHT22;28667;50.758;6.096;2024-01-11T15:00:59;-1.70;99.90
43043;DHT22;28667;50.758;6.096;2024-01-11T15:03:24;-1.80;99.90
43043;DHT22;28667;50.758;6.096;2024-01-11T15:05:52;-1.80;99.90
43043;DHT22;28667;50.758;6.096;2024-01-11T15:08:18;-1.80;99.90
43043;DHT22;28667;50.758;6.096;2024-01-11T15:10:45;-1.90;99.90
43043;DHT22;28667;50.758;6.096;2024-01-11T15:13:11;-1.90;99.90
43043;DHT22;28667;50.758;6.096;2024-01-11T15:15:36;-1.90;99.90
43043;DHT22;28667;50.758;6.096;2024-01-11T15:18:02;-1.90;99.90
43043;DHT22;28667;50.758;6.096;2024-01-11T15:20:28;-1.90;99.90
43043;DHT22;28667;50.758;6.096;2024-01-11T15:22:54;-1.90;99.90
43043;DHT22;28667;50.758;6.096;2024-01-11T15:25:20;-1.90;99.90
43043;DHT22;28667;50.758;6.096;2024-01-11T15:27:46;-2.00;99.90
43043;DHT22;28667;50.758;6.096;2024-01-11T15:30:12;-2.00;99.90
43043;DHT22;28667;50.758;6.096;2024-01-11T15:32:39;-2.00;99.90
43043;DHT22;28667;50.758;6.096;2024-01-11T15:35:05;-2.00;99.90